createdAt,value
2023-05-26T00:01:53.965Z,3.60
2023-05-26T00:04:22.484Z,2.80
2023-05-26T00:06:54.203Z,3.13
2023-05-26T00:09:22.198Z,2.92
2023-05-26T00:11:49.253Z,2.63
2023-05-26T00:14:16.719Z,2.92
2023-05-26T00:16:46.320Z,2.47
2023-05-26T00:19:13.306Z,2.55
2023-05-26T00:21:43.127Z,3.10
2023-05-26T00:24:09.917Z,3.10
2023-05-26T00:26:36.710Z,3.03
2023-05-26T00:29:04.549Z,3.78
2023-05-26T00:31:32.307Z,2.92
2023-05-26T00:33:59.065Z,4.32
2023-05-26T00:36:26.653Z,3.03
2023-05-26T00:38:53.352Z,2.78
2023-05-26T00:41:20.113Z,3.85
2023-05-26T00:43:47.020Z,3.47
2023-05-26T00:46:13.785Z,2.95
2023-05-26T00:48:40.517Z,2.80
2023-05-26T00:51:07.556Z,3.00
2023-05-26T00:53:39.810Z,2.97
2023-05-26T00:56:07.745Z,2.78
2023-05-26T00:58:34.586Z,2.97
2023-05-26T01:01:01.531Z,3.00
2023-05-26T01:03:28.430Z,3.30
2023-05-26T01:05:56.667Z,3.00
2023-05-26T01:08:23.313Z,2.63
2023-05-26T01:10:53.507Z,2.50
2023-05-26T01:13:25.567Z,2.78
2023-05-26T01:16:00.146Z,3.00
2023-05-26T01:18:38.080Z,3.37
2023-05-26T01:21:12.137Z,2.80
2023-05-26T01:24:00.723Z,3.50
2023-05-26T01:26:57.444Z,2.92
2023-05-26T01:29:28.266Z,2.80
2023-05-26T01:31:54.971Z,2.42
2023-05-26T01:34:21.653Z,3.60
2023-05-26T01:36:48.592Z,2.58
2023-05-26T01:39:15.268Z,2.85
2023-05-26T01:41:55.111Z,2.95
2023-05-26T01:45:04.667Z,2.90
2023-05-26T01:47:32.738Z,2.53
2023-05-26T01:50:03.614Z,3.08
2023-05-26T01:52:30.550Z,3.45
2023-05-26T01:55:02.327Z,2.63
2023-05-26T01:57:30.366Z,3.53
2023-05-26T01:59:58.106Z,2.70
2023-05-26T02:02:24.889Z,2.55
2023-05-26T02:04:51.593Z,2.78
2023-05-26T02:07:20.156Z,2.97
2023-05-26T02:09:47.423Z,2.97
2023-05-26T02:12:14.379Z,2.92
2023-05-26T02:14:41.073Z,3.28
2023-05-26T02:17:07.857Z,2.72
2023-05-26T02:19:34.767Z,2.97
2023-05-26T02:22:01.565Z,2.35
2023-05-26T02:24:28.299Z,3.08
2023-05-26T02:26:56.990Z,2.30
2023-05-26T02:29:23.656Z,2.63
2023-05-26T02:31:50.494Z,2.80
2023-05-26T02:34:17.387Z,2.25
2023-05-26T02:36:44.125Z,2.97
2023-05-26T02:39:10.907Z,2.63
2023-05-26T02:41:38.371Z,2.80
2023-05-26T02:44:05.023Z,2.88
2023-05-26T02:46:31.800Z,2.83
2023-05-26T02:49:01.374Z,2.42
2023-05-26T02:51:28.612Z,2.55
2023-05-26T02:53:55.362Z,2.58
2023-05-26T02:56:22.670Z,3.05
2023-05-26T02:58:49.311Z,2.70
2023-05-26T03:01:16.439Z,2.95
2023-05-26T03:03:43.234Z,2.95
2023-05-26T03:06:10.005Z,2.70
2023-05-26T03:08:39.169Z,2.53
2023-05-26T03:11:10.058Z,2.47
2023-05-26T03:13:39.769Z,2.58
2023-05-26T03:16:07.550Z,2.83
2023-05-26T03:18:34.591Z,2.92
2023-05-26T03:21:01.501Z,3.10
2023-05-26T03:23:28.549Z,2.58
2023-05-26T03:25:56.799Z,2.53
2023-05-26T03:28:25.377Z,3.13
2023-05-26T03:30:52.302Z,2.97
2023-05-26T03:33:19.393Z,2.42
2023-05-26T03:35:46.976Z,2.53
2023-05-26T03:38:13.995Z,2.65
2023-05-26T03:40:42.559Z,2.75
2023-05-26T03:43:09.345Z,3.30
2023-05-26T03:45:44.265Z,2.70
2023-05-26T03:48:13.932Z,2.83
2023-05-26T03:50:44.867Z,2.90
2023-05-26T03:53:11.931Z,3.03
2023-05-26T03:55:38.726Z,2.90
2023-05-26T03:58:05.838Z,2.67
2023-05-26T04:00:33.210Z,3.78
2023-05-26T04:03:01.510Z,2.60
2023-05-26T04:05:30.420Z,3.28
2023-05-26T04:07:57.841Z,2.58
2023-05-26T04:10:24.590Z,2.88
2023-05-26T04:12:51.356Z,2.60
2023-05-26T04:15:18.043Z,3.03
2023-05-26T04:17:44.864Z,2.65
2023-05-26T04:20:12.245Z,2.65
2023-05-26T04:22:39.984Z,2.72
2023-05-26T04:25:08.456Z,2.80
2023-05-26T04:27:49.292Z,3.42
2023-05-26T04:30:40.299Z,2.42
2023-05-26T04:33:14.270Z,2.65
2023-05-26T04:35:52.476Z,3.05
2023-05-26T04:38:21.483Z,2.50
2023-05-26T04:40:49.515Z,3.25
2023-05-26T04:43:16.512Z,3.05
2023-05-26T04:45:44.648Z,3.42
2023-05-26T04:48:12.059Z,3.00
2023-05-26T04:50:42.234Z,2.85
2023-05-26T04:53:09.766Z,3.50
2023-05-26T04:55:36.756Z,3.05
2023-05-26T04:58:08.096Z,3.47
2023-05-26T05:00:37.454Z,2.85
2023-05-26T05:03:24.324Z,2.97
2023-05-26T05:06:04.830Z,2.67
2023-05-26T05:08:32.041Z,2.88
2023-05-26T05:11:00.210Z,3.03
2023-05-26T05:13:28.370Z,3.15
2023-05-26T05:15:55.127Z,3.28
2023-05-26T05:18:22.021Z,3.53
2023-05-26T05:20:49.021Z,3.90
2023-05-26T05:23:16.056Z,3.33
2023-05-26T05:25:43.317Z,3.97
2023-05-26T05:28:11.589Z,3.58
2023-05-26T05:30:46.305Z,3.45
2023-05-26T05:33:13.985Z,3.80
2023-05-26T05:35:41.105Z,4.03
2023-05-26T05:38:07.918Z,4.22
2023-05-26T05:40:35.019Z,3.90
2023-05-26T05:43:02.174Z,4.00
2023-05-26T05:45:29.063Z,3.47
2023-05-26T05:48:18.686Z,4.53
2023-05-26T05:50:58.011Z,3.95
2023-05-26T05:53:24.680Z,4.20
2023-05-26T05:55:53.292Z,4.30
2023-05-26T05:58:20.828Z,3.60
2023-05-26T06:00:47.983Z,4.00
2023-05-26T06:03:15.200Z,3.60
2023-05-26T06:05:42.135Z,3.90
2023-05-26T06:08:08.912Z,4.93
2023-05-26T06:10:35.659Z,4.10
2023-05-26T06:13:02.395Z,4.07
2023-05-26T06:15:29.052Z,3.90
2023-05-26T06:17:56.653Z,3.92
2023-05-26T06:20:24.618Z,3.92
2023-05-26T06:22:51.593Z,3.28
2023-05-26T06:25:18.188Z,3.00
2023-05-26T06:27:45.493Z,3.75
2023-05-26T06:30:12.484Z,3.90
2023-05-26T06:32:40.581Z,3.30
2023-05-26T06:35:08.452Z,3.10
2023-05-26T06:37:35.613Z,3.08
2023-05-26T06:40:02.541Z,3.55
2023-05-26T06:42:36.004Z,3.33
2023-05-26T06:45:03.517Z,3.10
2023-05-26T06:47:31.298Z,3.13
2023-05-26T06:50:10.914Z,3.22
2023-05-26T06:52:38.249Z,3.60
2023-05-26T06:55:05.409Z,3.05
2023-05-26T06:57:32.177Z,3.25
2023-05-26T06:59:58.838Z,4.25
2023-05-26T07:02:26.007Z,3.50
2023-05-26T07:05:10.799Z,3.58
2023-05-26T07:07:37.916Z,3.15
2023-05-26T07:10:05.053Z,2.97
2023-05-26T07:12:33.835Z,2.90
2023-05-26T07:15:14.035Z,3.85
2023-05-26T07:17:40.856Z,4.32
2023-05-26T07:20:08.359Z,3.45
2023-05-26T07:22:35.729Z,3.95
2023-05-26T07:25:15.390Z,3.53
2023-05-26T07:27:48.369Z,3.67
2023-05-26T07:30:15.346Z,2.90
2023-05-26T07:32:55.588Z,3.22
2023-05-26T07:35:23.215Z,2.97
2023-05-26T07:37:50.240Z,2.83
2023-05-26T07:40:17.089Z,3.28
2023-05-26T07:42:44.206Z,3.80
2023-05-26T07:45:11.410Z,3.35
2023-05-26T07:47:38.221Z,4.10
2023-05-26T07:50:06.001Z,3.15
2023-05-26T07:52:32.744Z,3.35
2023-05-26T07:54:59.536Z,3.08
2023-05-26T07:57:29.767Z,3.58
2023-05-26T07:59:57.895Z,2.90
2023-05-26T08:02:24.778Z,3.00
2023-05-26T08:04:51.801Z,3.10
2023-05-26T08:07:19.566Z,2.78
2023-05-26T08:09:46.988Z,4.15
2023-05-26T08:12:14.447Z,3.15
2023-05-26T08:14:41.245Z,3.40
2023-05-26T08:17:07.877Z,2.65
2023-05-26T08:19:34.623Z,3.33
2023-05-26T08:22:01.311Z,2.63
2023-05-26T08:24:28.068Z,2.30
2023-05-26T08:26:54.950Z,2.80
2023-05-26T08:29:23.855Z,3.17
2023-05-26T08:31:51.266Z,2.83
2023-05-26T08:34:18.799Z,2.90
2023-05-26T08:36:46.350Z,2.83
2023-05-26T08:39:13.149Z,2.70
2023-05-26T08:41:42.954Z,3.60
2023-05-26T08:44:09.842Z,3.00
2023-05-26T08:46:37.727Z,2.97
2023-05-26T08:49:06.080Z,3.40
2023-05-26T08:51:39.345Z,2.90
2023-05-26T08:54:06.502Z,3.08
2023-05-26T08:56:33.452Z,2.78
2023-05-26T08:59:03.292Z,3.70
2023-05-26T09:01:30.046Z,2.28
2023-05-26T09:03:56.753Z,2.75
2023-05-26T09:06:23.940Z,2.72
2023-05-26T09:08:50.675Z,2.88
2023-05-26T09:11:24.946Z,2.95
2023-05-26T09:13:58.440Z,3.22
2023-05-26T09:16:27.897Z,2.75
2023-05-26T09:18:58.981Z,2.65
2023-05-26T09:21:29.795Z,2.80
2023-05-26T09:23:58.530Z,3.20
2023-05-26T09:26:33.885Z,3.00
2023-05-26T09:31:44.377Z,2.80
2023-05-26T09:34:12.274Z,2.33
2023-05-26T09:36:40.864Z,2.95
2023-05-26T09:39:10.580Z,2.75
2023-05-26T09:41:41.151Z,2.72
2023-05-26T09:44:12.192Z,2.78
2023-05-26T09:46:40.229Z,2.70
2023-05-26T09:49:17.624Z,2.30
2023-05-26T09:51:51.321Z,3.03
2023-05-26T09:54:24.411Z,2.65
2023-05-26T09:56:57.103Z,2.67
2023-05-26T09:59:32.780Z,2.30
2023-05-26T10:02:01.542Z,2.58
2023-05-26T10:04:29.262Z,2.70
2023-05-26T10:06:58.164Z,2.22
2023-05-26T10:09:26.925Z,2.70
2023-05-26T10:11:57.340Z,2.28
2023-05-26T10:14:24.985Z,2.53
2023-05-26T10:16:55.023Z,2.63
2023-05-26T10:19:22.298Z,2.20
2023-05-26T10:21:57.251Z,2.30
2023-05-26T10:24:32.954Z,2.92
2023-05-26T10:27:14.141Z,2.30
2023-05-26T10:29:48.219Z,2.67
2023-05-26T10:32:50.734Z,2.10
2023-05-26T10:35:27.866Z,2.25
2023-05-26T10:38:03.827Z,2.33
2023-05-26T10:40:50.737Z,2.60
2023-05-26T10:43:23.102Z,2.17
2023-05-26T10:46:01.871Z,2.50
2023-05-26T10:48:39.412Z,2.67
2023-05-26T10:51:10.556Z,2.63
2023-05-26T10:53:41.552Z,1.90
2023-05-26T10:56:09.962Z,2.30
2023-05-26T10:58:37.799Z,1.92
2023-05-26T11:01:09.485Z,2.92
2023-05-26T11:03:38.483Z,2.65
2023-05-26T11:06:06.169Z,2.42
2023-05-26T11:08:37.453Z,2.03
2023-05-26T11:11:07.063Z,2.50
2023-05-26T11:13:43.522Z,2.40
2023-05-26T11:16:25.941Z,2.17
2023-05-26T11:18:58.185Z,2.55
2023-05-26T11:21:27.057Z,2.13
2023-05-26T11:23:55.639Z,2.00
2023-05-26T11:26:23.336Z,2.42
2023-05-26T11:28:51.775Z,2.15
2023-05-26T11:31:20.738Z,2.38
2023-05-26T11:33:48.594Z,2.10
2023-05-26T11:36:20.762Z,2.30
2023-05-26T11:38:51.130Z,2.50
2023-05-26T11:41:18.380Z,2.20
2023-05-26T11:43:46.551Z,2.45
2023-05-26T11:46:17.042Z,1.98
2023-05-26T11:48:44.762Z,1.70
2023-05-26T11:51:12.851Z,2.17
2023-05-26T11:53:41.683Z,2.17
2023-05-26T11:56:10.283Z,2.20
2023-05-26T11:58:41.670Z,2.10
2023-05-26T12:01:09.700Z,2.40
2023-05-26T12:03:41.294Z,1.80
2023-05-26T12:08:56.893Z,1.98
2023-05-26T12:11:34.620Z,1.70
2023-05-26T12:14:07.147Z,2.38
2023-05-26T12:16:36.650Z,1.88
2023-05-26T12:19:08.656Z,1.92
2023-05-26T12:21:54.002Z,2.15
2023-05-26T12:24:35.796Z,2.20
2023-05-26T12:27:09.483Z,2.33
2023-05-26T12:29:38.073Z,2.22
2023-05-26T12:32:08.528Z,2.10
2023-05-26T12:34:36.747Z,2.50
2023-05-26T12:37:03.510Z,1.85
2023-05-26T12:39:30.462Z,2.20
2023-05-26T12:42:02.633Z,2.15
2023-05-26T12:44:29.515Z,1.90
2023-05-26T12:46:56.539Z,2.35
2023-05-26T12:49:23.350Z,2.58
2023-05-26T12:51:51.296Z,2.22
2023-05-26T12:54:18.050Z,2.47
2023-05-26T12:56:44.736Z,2.55
2023-05-26T12:59:20.107Z,2.55
2023-05-26T13:01:48.826Z,2.20
2023-05-26T13:04:16.664Z,2.22
2023-05-26T13:06:43.653Z,3.13
2023-05-26T13:09:12.746Z,2.30
2023-05-26T13:11:39.890Z,2.58
2023-05-26T13:14:07.094Z,2.90
2023-05-26T13:16:33.930Z,2.53
2023-05-26T13:19:00.997Z,2.40
2023-05-26T13:21:27.811Z,2.67
2023-05-26T13:23:57.113Z,2.65
2023-05-26T13:26:27.057Z,2.60
2023-05-26T13:28:54.609Z,2.60
2023-05-26T13:31:24.189Z,2.35
2023-05-26T13:33:53.061Z,2.75
2023-05-26T13:36:20.011Z,2.63
2023-05-26T13:38:46.760Z,2.50
2023-05-26T13:41:13.662Z,3.00
2023-05-26T13:43:40.847Z,2.90
2023-05-26T13:46:07.696Z,2.60
2023-05-26T13:48:34.507Z,2.80
2023-05-26T13:51:01.618Z,3.17
2023-05-26T13:53:28.496Z,2.63
2023-05-26T13:55:55.729Z,2.92
2023-05-26T13:58:22.841Z,2.40
2023-05-26T14:00:49.608Z,2.42
2023-05-26T14:03:16.552Z,2.20
2023-05-26T14:05:43.352Z,2.72
2023-05-26T14:08:10.115Z,2.75
2023-05-26T14:10:37.703Z,2.50
2023-05-26T14:13:04.561Z,2.80
2023-05-26T14:15:31.264Z,2.30
2023-05-26T14:21:37.525Z,2.28
2023-05-26T14:23:14.445Z,2.72
2023-05-26T14:25:41.224Z,2.58
2023-05-26T14:28:08.369Z,2.92
2023-05-26T14:30:35.270Z,2.13
2023-05-26T14:33:04.976Z,2.70
2023-05-26T14:35:32.141Z,2.20
2023-05-26T14:37:58.942Z,2.78
2023-05-26T14:40:25.829Z,2.60
2023-05-26T14:42:52.794Z,2.78
2023-05-26T14:45:19.676Z,2.22
2023-05-26T14:47:46.374Z,2.72
2023-05-26T14:50:13.232Z,2.80
2023-05-26T14:52:39.939Z,2.45
2023-05-26T14:55:08.878Z,2.38
2023-05-26T14:57:35.657Z,2.28
2023-05-26T15:00:03.551Z,2.63
2023-05-26T15:02:30.514Z,2.35
2023-05-26T15:04:57.326Z,2.58
2023-05-26T15:07:24.135Z,2.50
2023-05-26T15:09:51.002Z,2.35
2023-05-26T15:12:19.070Z,2.38
2023-05-26T15:14:45.899Z,2.17
2023-05-26T15:17:12.546Z,2.50
2023-05-26T15:19:39.511Z,2.33
2023-05-26T15:22:07.099Z,2.55
2023-05-26T15:24:34.638Z,2.75
2023-05-26T15:27:01.731Z,3.00
2023-05-26T15:29:28.821Z,2.38
2023-05-26T15:31:56.193Z,2.70
2023-05-26T15:34:23.215Z,2.70
2023-05-26T15:36:51.010Z,2.97
2023-05-26T15:39:18.335Z,2.60
2023-05-26T15:41:45.526Z,2.97
2023-05-26T15:44:12.718Z,2.20
2023-05-26T15:46:42.172Z,2.50
2023-05-26T15:49:12.443Z,2.42
2023-05-26T15:51:39.195Z,2.80
2023-05-26T15:54:06.516Z,2.60
2023-05-26T15:56:34.609Z,2.75
2023-05-26T15:59:01.383Z,2.83
2023-05-26T16:01:28.354Z,2.63
2023-05-26T16:03:55.528Z,3.58
2023-05-26T16:06:22.350Z,3.10
2023-05-26T16:08:49.061Z,2.97
2023-05-26T16:11:16.831Z,3.08
2023-05-26T16:13:44.109Z,2.60
2023-05-26T16:16:11.681Z,3.25
2023-05-26T16:18:38.758Z,2.25
2023-05-26T16:21:06.499Z,2.55
2023-05-26T16:23:33.838Z,2.80
2023-05-26T16:26:01.645Z,2.90
2023-05-26T16:28:29.071Z,2.67
2023-05-26T16:30:57.516Z,3.00
2023-05-26T16:33:24.924Z,2.85
2023-05-26T16:35:53.209Z,3.45
2023-05-26T16:38:21.766Z,3.47
2023-05-26T16:40:48.776Z,3.97
2023-05-26T16:43:23.630Z,4.43
2023-05-26T16:45:59.189Z,5.40
2023-05-26T16:48:26.086Z,7.07
2023-05-26T16:50:53.523Z,8.00
2023-05-26T16:53:20.483Z,4.07
2023-05-26T16:55:47.358Z,4.18
2023-05-26T16:58:14.149Z,4.90
2023-05-26T17:00:41.025Z,5.78
2023-05-26T17:03:07.897Z,4.38
2023-05-26T17:05:34.772Z,4.10
2023-05-26T17:08:01.949Z,3.83
2023-05-26T17:10:28.798Z,6.72
2023-05-26T17:12:57.690Z,3.22
2023-05-26T17:15:24.858Z,3.65
2023-05-26T17:17:51.806Z,4.38
2023-05-26T17:20:18.909Z,10.65
2023-05-26T17:22:45.900Z,3.28
2023-05-26T17:25:14.229Z,8.02
2023-05-26T17:27:41.176Z,6.35
2023-05-26T17:30:08.525Z,12.77
2023-05-26T17:32:35.241Z,10.05
2023-05-26T17:35:02.365Z,4.20
2023-05-26T17:37:29.050Z,5.13
2023-05-26T17:39:55.793Z,5.95
2023-05-26T17:42:22.505Z,6.18
2023-05-26T17:44:49.294Z,3.30
2023-05-26T17:47:16.246Z,3.90
2023-05-26T17:49:43.181Z,3.60
2023-05-26T17:52:09.882Z,2.80
2023-05-26T17:54:36.601Z,3.28
2023-05-26T17:57:03.410Z,4.72
2023-05-26T17:59:31.241Z,3.25
2023-05-26T18:01:58.519Z,4.53
2023-05-26T18:04:26.255Z,4.03
2023-05-26T18:06:53.163Z,4.25
2023-05-26T18:09:19.916Z,4.38
2023-05-26T18:11:46.771Z,3.30
2023-05-26T18:14:13.602Z,2.30
2023-05-26T18:16:40.889Z,2.60
2023-05-26T18:19:07.859Z,3.38
2023-05-26T18:21:34.633Z,3.35
2023-05-26T18:24:01.314Z,3.35
2023-05-26T18:26:27.988Z,2.65
2023-05-26T18:28:55.700Z,2.70
2023-05-26T18:31:22.543Z,2.80
2023-05-26T18:33:49.389Z,3.17
2023-05-26T18:36:16.986Z,3.10
2023-05-26T18:38:44.003Z,3.08
2023-05-26T18:41:10.853Z,3.00
2023-05-26T18:43:37.630Z,2.60
2023-05-26T18:46:04.548Z,2.33
2023-05-26T18:48:32.293Z,3.85
2023-05-26T18:50:59.169Z,2.92
2023-05-26T18:53:25.888Z,2.85
2023-05-26T18:55:52.536Z,3.25
2023-05-26T18:58:19.335Z,3.22
2023-05-26T19:00:48.448Z,2.90
2023-05-26T19:03:15.325Z,2.72
2023-05-26T19:05:42.272Z,2.92
2023-05-26T19:08:13.150Z,3.97
2023-05-26T19:10:41.001Z,2.60
2023-05-26T19:13:07.742Z,3.75
2023-05-26T19:15:34.486Z,3.25
2023-05-26T19:18:01.326Z,3.20
2023-05-26T19:20:28.394Z,3.03
2023-05-26T19:22:55.075Z,3.00
2023-05-26T19:25:21.834Z,3.63
2023-05-26T19:27:49.523Z,3.15
2023-05-26T19:30:16.436Z,3.30
2023-05-26T19:32:44.574Z,2.90
2023-05-26T19:35:13.598Z,3.25
2023-05-26T19:37:40.464Z,2.80
2023-05-26T19:40:08.669Z,3.25
2023-05-26T19:42:35.547Z,3.08
2023-05-26T19:45:02.510Z,3.72
2023-05-26T19:47:29.242Z,2.78
2023-05-26T19:49:56.173Z,3.03
2023-05-26T19:52:22.993Z,3.00
2023-05-26T19:54:49.845Z,2.88
2023-05-26T19:57:16.578Z,2.88
2023-05-26T19:59:43.410Z,3.97
2023-05-26T20:02:11.231Z,3.10
2023-05-26T20:04:38.070Z,2.85
2023-05-26T20:07:04.979Z,2.97
2023-05-26T20:09:31.661Z,2.53
2023-05-26T20:11:58.466Z,3.50
2023-05-26T20:14:25.515Z,3.15
2023-05-26T20:16:52.768Z,3.03
2023-05-26T20:19:21.962Z,3.03
2023-05-26T20:21:48.677Z,3.50
2023-05-26T20:24:15.423Z,3.33
2023-05-26T20:26:42.059Z,3.47
2023-05-26T20:29:08.809Z,3.70
2023-05-26T20:31:35.580Z,3.47
2023-05-26T20:34:02.412Z,3.30
2023-05-26T20:36:29.107Z,2.90
2023-05-26T20:38:55.925Z,3.35
2023-05-26T20:41:22.794Z,3.60
2023-05-26T20:43:50.383Z,3.35
2023-05-26T20:46:17.105Z,3.53
2023-05-26T20:48:44.401Z,2.97
2023-05-26T20:51:11.675Z,3.20
2023-05-26T20:53:38.571Z,3.17
2023-05-26T20:56:05.799Z,3.05
2023-05-26T20:58:32.696Z,2.85
2023-05-26T21:00:59.465Z,3.45
2023-05-26T21:03:26.661Z,3.30
2023-05-26T21:05:53.550Z,2.90
2023-05-26T21:08:20.477Z,2.95
2023-05-26T21:10:47.213Z,3.63
2023-05-26T21:13:14.076Z,3.08
2023-05-26T21:15:41.105Z,3.40
2023-05-26T21:18:08.053Z,3.38
2023-05-26T21:20:34.917Z,2.92
2023-05-26T21:23:02.230Z,2.65
2023-05-26T21:25:28.910Z,3.63
2023-05-26T21:27:55.587Z,2.92
2023-05-26T21:30:22.937Z,3.33
2023-05-26T21:32:54.244Z,3.75
2023-05-26T21:35:21.111Z,3.13
2023-05-26T21:37:47.770Z,3.40
2023-05-26T21:40:14.576Z,2.78
2023-05-26T21:42:41.195Z,3.30
2023-05-26T21:45:08.783Z,3.47
2023-05-26T21:47:35.633Z,3.60
2023-05-26T21:50:02.618Z,3.30
2023-05-26T21:52:29.398Z,3.20
2023-05-26T21:54:56.188Z,3.30
2023-05-26T21:57:22.892Z,3.28
2023-05-26T21:59:49.645Z,3.40
2023-05-26T22:02:17.230Z,3.28
2023-05-26T22:04:43.934Z,3.58
2023-05-26T22:07:12.355Z,4.13
2023-05-26T22:09:39.991Z,3.10
2023-05-26T22:12:07.289Z,3.28
2023-05-26T22:14:34.413Z,2.85
2023-05-26T22:17:01.459Z,3.00
2023-05-26T22:19:28.997Z,3.58
2023-05-26T22:21:55.673Z,3.53
2023-05-26T22:24:22.392Z,3.65
2023-05-26T22:26:49.123Z,3.50
2023-05-26T22:29:16.187Z,4.00
2023-05-26T22:31:43.389Z,3.53
2023-05-26T22:34:10.149Z,3.72
2023-05-26T22:36:36.872Z,4.07
2023-05-26T22:39:04.412Z,3.72
2023-05-26T22:41:31.788Z,3.35
2023-05-26T22:43:58.542Z,3.53
2023-05-26T22:46:25.422Z,3.30
2023-05-26T22:48:52.369Z,3.17
2023-05-26T22:51:19.044Z,3.58
2023-05-26T22:53:46.078Z,3.08
2023-05-26T22:56:14.896Z,2.85
2023-05-26T22:58:42.274Z,3.10
2023-05-26T23:01:09.589Z,2.97
2023-05-26T23:03:39.026Z,3.03
2023-05-26T23:06:06.542Z,3.28
2023-05-26T23:08:33.316Z,3.60
2023-05-26T23:11:00.172Z,3.85
2023-05-26T23:13:26.895Z,3.55
2023-05-26T23:15:53.957Z,3.88
2023-05-26T23:18:20.873Z,3.25
2023-05-26T23:20:47.735Z,4.15
2023-05-26T23:23:14.853Z,2.97
2023-05-26T23:25:42.280Z,3.13
2023-05-26T23:28:08.995Z,3.45
2023-05-26T23:30:36.004Z,3.10
2023-05-26T23:33:02.680Z,3.15
2023-05-26T23:35:29.512Z,3.97
2023-05-26T23:37:56.174Z,3.13
2023-05-26T23:40:26.081Z,3.55
2023-05-26T23:42:53.103Z,3.33
2023-05-26T23:45:19.814Z,3.22
2023-05-26T23:47:46.504Z,3.33
2023-05-26T23:50:13.261Z,3.40
2023-05-26T23:52:39.976Z,3.78
2023-05-26T23:55:07.122Z,3.95
2023-05-26T23:57:33.795Z,2.95
